Time;durP1;ratioP1;P1;durP2;ratioP2;P2;SDS_P1;SDS_P2;PMS_P1;PMS_P2;Temp;Humidity;BMP_temperature;BMP_pressure;BME280_temperature;BME280_humidity;BME280_pressure;Samples;Min_cycle;Max_cycle;Signal;HPM_P1;HPM_P2
2022/12/05 00:01:18;;;;;;;25.25;17.10;;;;;;;5.91;64.69;100310.78;5112618;28;20044;-63
2022/12/05 00:03:46;;;;;;;25.67;17.35;;;;;;;5.93;64.26;100307.72;5111891;28;20050;-62
2022/12/05 00:06:14;;;;;;;26.67;17.88;;;;;;;5.90;64.16;100312.72;5112165;28;20062;-62
2022/12/05 00:08:41;;;;;;;26.20;17.45;;;;;;;5.92;64.26;100312.41;5112040;28;20059;-62
2022/12/05 00:11:13;;;;;;;23.83;15.88;;;;;;;5.94;64.05;100304.66;5110225;28;20048;-62
2022/12/05 00:13:41;;;;;;;26.15;16.85;;;;;;;5.93;64.11;100310.50;5112233;28;20407;-63
2022/12/05 00:16:09;;;;;;;23.77;16.45;;;;;;;5.95;64.22;100302.78;5112078;28;20055;-62
2022/12/05 00:18:38;;;;;;;24.20;17.17;;;;;;;5.98;64.02;100302.19;5112044;28;20048;-62
2022/12/05 00:21:07;;;;;;;23.95;15.45;;;;;;;6.04;63.82;100307.38;5111359;28;20100;-62
2022/12/05 00:23:34;;;;;;;23.63;16.85;;;;;;;6.04;63.98;100307.38;5111585;28;20059;-62
2022/12/05 00:26:03;;;;;;;24.80;17.80;;;;;;;6.04;63.80;100315.66;5111210;28;20043;-62
2022/12/05 00:28:31;;;;;;;25.60;16.65;;;;;;;6.02;63.66;100312.38;5114460;28;20055;-62
2022/12/05 00:31:02;;;;;;;24.40;16.98;;;;;;;6.04;63.81;100317.63;5115281;28;20047;-62
2022/12/05 00:33:29;;;;;;;24.42;16.73;;;;;;;6.05;63.72;100313.75;5115720;28;20502;-62
2022/12/05 00:36:02;;;;;;;25.23;17.05;;;;;;;6.05;63.95;100319.28;5097046;28;20059;-62
2022/12/05 00:38:29;;;;;;;23.90;16.15;;;;;;;5.97;63.82;100312.41;5094948;28;20511;-63
2022/12/05 00:40:56;;;;;;;27.80;17.42;;;;;;;5.99;63.87;100307.44;5102621;28;20054;-62
2022/12/05 00:43:24;;;;;;;25.98;17.90;;;;;;;6.01;63.96;100307.16;5115535;28;20058;-62
2022/12/05 00:45:51;;;;;;;27.17;17.85;;;;;;;6.06;63.94;100304.34;5115210;28;20056;-62
2022/12/05 00:48:18;;;;;;;22.05;16.30;;;;;;;6.11;63.58;100312.59;5115494;28;20078;-63
2022/12/05 00:50:48;;;;;;;22.48;16.30;;;;;;;6.02;63.74;100306.84;5114830;28;20469;-62
2022/12/05 00:53:17;;;;;;;;;;;;;;;5.98;63.99;100305.75;5115190;28;20411;-62
2022/12/05 00:55:44;;;;;;;25.50;18.10;;;;;;;5.91;64.13;100302.47;5109287;28;19934;-62
2022/12/05 00:58:11;;;;;;;23.48;16.67;;;;;;;5.97;64.20;100298.59;5113607;28;20056;-62
2022/12/05 01:00:38;;;;;;;29.00;18.73;;;;;;;6.00;63.78;100303.53;5114931;28;20370;-62
2022/12/05 01:03:05;;;;;;;25.90;16.83;;;;;;;6.07;63.86;100301.28;5114988;28;20052;-62
2022/12/05 01:05:34;;;;;;;25.70;17.08;;;;;;;6.01;64.20;100298.84;5114925;28;20063;-62
2022/12/05 01:08:01;;;;;;;21.67;16.48;;;;;;;6.05;63.86;100297.16;5115240;28;20396;-62
2022/12/05 01:10:30;;;;;;;23.77;16.83;;;;;;;5.95;64.21;100300.81;5113239;28;20051;-62
2022/12/05 01:12:57;;;;;;;25.38;17.75;;;;;;;5.99;63.90;100296.38;5114454;28;20051;-62
2022/12/05 01:15:25;;;;;;;25.88;16.83;;;;;;;6.00;64.20;100295.25;5114697;28;20055;-62
2022/12/05 01:17:52;;;;;;;25.40;17.13;;;;;;;6.03;64.34;100294.69;5114461;28;20063;-62
2022/12/05 01:20:19;;;;;;;22.05;15.43;;;;;;;6.06;63.68;100288.56;5114734;28;20377;-62
2022/12/05 01:22:47;;;;;;;23.35;16.35;;;;;;;6.07;64.28;100295.75;5114816;28;20377;-62
2022/12/05 01:25:14;;;;;;;24.67;17.10;;;;;;;5.99;64.47;100295.56;5112122;28;20396;-62
2022/12/05 01:27:43;;;;;;;26.40;17.50;;;;;;;6.03;64.43;100302.97;5114402;28;20055;-62
2022/12/05 01:30:11;;;;;;;25.73;16.85;;;;;;;5.99;64.18;100296.38;5114222;28;20066;-62
2022/12/05 01:32:38;;;;;;;24.13;17.13;;;;;;;6.10;64.30;100295.16;5114275;28;20055;-62
2022/12/05 01:35:06;;;;;;;25.35;17.30;;;;;;;6.12;64.21;100297.66;5102737;28;20048;-62
2022/12/05 01:37:33;;;;;;;25.20;18.08;;;;;;;6.15;64.36;100296.25;5093388;28;20393;-62
2022/12/05 01:40:00;;;;;;;24.75;18.05;;;;;;;6.15;64.08;100310.06;5073555;28;20474;-62
2022/12/05 01:42:28;;;;;;;26.92;17.80;;;;;;;6.07;64.64;100317.88;5073900;28;20048;-62
2022/12/05 01:45:12;;;;;;;23.60;16.75;;;;;;;6.16;63.86;100303.44;5073497;28;20056;-62
2022/12/05 01:47:40;;;;;;;24.83;17.63;;;;;;;6.09;63.89;100310.13;5073456;28;20500;-62
2022/12/05 01:50:08;;;;;;;26.83;18.20;;;;;;;6.08;64.64;100308.44;5073260;28;20044;-62
2022/12/05 01:52:36;;;;;;;24.63;16.48;;;;;;;6.09;64.17;100304.59;5078473;28;20067;-62
2022/12/05 01:55:08;;;;;;;26.95;17.45;;;;;;;6.11;63.60;100309.84;5113980;28;20074;-62
2022/12/05 01:57:36;;;;;;;23.63;16.52;;;;;;;6.14;64.36;100308.44;5111955;28;20055;-62
2022/12/05 02:00:11;;;;;;;23.20;15.70;;;;;;;6.16;63.97;100303.44;5112336;28;20043;-62
2022/12/05 02:02:40;;;;;;;22.88;16.35;;;;;;;6.15;64.11;100313.66;5113833;28;20503;-62
2022/12/05 02:05:13;;;;;;;23.13;16.90;;;;;;;6.12;64.20;100318.97;5113665;28;20047;-62
2022/12/05 02:07:42;;;;;;;24.02;16.58;;;;;;;6.10;64.31;100314.53;5111919;28;20052;-62
2022/12/05 02:10:10;;;;;;;25.20;16.17;;;;;;;6.08;64.40;100316.75;5113667;28;20043;-62
2022/12/05 02:12:38;;;;;;;23.02;16.38;;;;;;;6.09;64.25;100321.19;5113736;28;20047;-62
2022/12/05 02:15:27;;;;;;;24.58;16.98;;;;;;;6.10;64.63;100322.81;5113572;28;20051;-62
2022/12/05 02:18:04;;;;;;;24.17;16.02;;;;;;;6.13;64.68;100324.16;5113528;28;20480;-62
2022/12/05 02:20:43;;;;;;;23.95;16.35;;;;;;;6.16;64.54;100328.31;5113353;28;20047;-62
2022/12/05 02:23:31;;;;;;;24.20;15.93;;;;;;;6.22;63.99;100313.34;5111446;28;20062;-62
2022/12/05 02:26:33;;;;;;;21.92;15.90;;;;;;;6.18;64.53;100323.34;5113113;28;20048;-62
2022/12/05 02:29:39;;;;;;;23.13;16.40;;;;;;;6.21;63.84;100319.97;5108600;28;20052;-63
2022/12/05 02:32:12;;;;;;;23.98;16.95;;;;;;;6.22;63.97;100319.69;5070545;28;20481;-62
2022/12/05 02:34:45;;;;;;;23.77;15.85;;;;;;;6.21;63.94;100326.31;5106054;28;20048;-62
2022/12/05 02:37:18;;;;;;;24.48;16.00;;;;;;;6.24;64.24;100323.00;5110251;28;20055;-62
2022/12/05 02:39:51;;;;;;;21.17;15.65;;;;;;;6.23;64.14;100317.75;5113292;28;20051;-62
2022/12/05 02:42:24;;;;;;;24.60;16.20;;;;;;;6.28;63.63;100320.50;5113344;28;20048;-62
2022/12/05 02:44:57;;;;;;;22.05;15.35;;;;;;;6.23;63.76;100321.31;5112967;28;20058;-62
2022/12/05 02:47:29;;;;;;;22.40;15.02;;;;;;;6.25;64.23;100324.63;5112321;28;20056;-62
2022/12/05 02:49:58;;;;;;;24.00;16.33;;;;;;;6.21;64.31;100318.03;5108942;28;20044;-62
2022/12/05 02:52:27;;;;;;;25.65;17.05;;;;;;;6.22;64.43;100316.09;5110348;28;20055;-62
2022/12/05 02:54:55;;;;;;;23.17;15.75;;;;;;;6.28;64.04;100329.59;5112788;28;20051;-62
2022/12/05 02:57:24;;;;;;;22.25;15.80;;;;;;;6.19;63.59;100319.44;5113061;28;20048;-62
2022/12/05 02:59:51;;;;;;;23.50;15.68;;;;;;;6.29;63.94;100322.13;5113045;28;20051;-62
2022/12/05 03:02:30;;;;;;;21.85;15.07;;;;;;;6.30;63.36;100326.56;5090925;28;20071;-62
2022/12/05 03:05:01;;;;;;;26.45;17.65;;;;;;;6.32;63.43;100329.00;5093466;28;20377;-62
2022/12/05 03:07:31;;;;;;;23.17;17.10;;;;;;;6.27;63.94;100329.88;5092768;28;20051;-62
2022/12/05 03:10:04;;;;;;;22.42;15.45;;;;;;;6.24;64.45;100328.53;5091971;28;20057;-62
2022/12/05 03:12:37;;;;;;;23.35;15.63;;;;;;;6.25;64.40;100326.56;5092665;28;20469;-62
2022/12/05 03:15:10;;;;;;;24.80;16.63;;;;;;;6.20;64.19;100327.44;5092431;28;20056;-62
2022/12/05 03:17:47;;;;;;;21.02;15.25;;;;;;;6.22;64.30;100328.00;5092588;28;20052;-62
2022/12/05 03:20:21;;;;;;;23.60;16.45;;;;;;;6.26;64.12;100331.00;5104473;28;20475;-62
2022/12/05 03:22:53;;;;;;;25.67;17.58;;;;;;;6.25;64.35;100329.34;5112625;28;20055;-62
2022/12/05 03:25:25;;;;;;;22.02;15.80;;;;;;;6.31;64.16;100328.19;5109851;28;20055;-62
2022/12/05 03:28:01;;;;;;;24.33;16.10;;;;;;;6.32;63.94;100327.09;5111485;28;20047;-62
2022/12/05 03:30:30;;;;;;;21.65;15.60;;;;;;;6.27;64.26;100321.59;5112411;28;20396;-62
2022/12/05 03:33:05;;;;;;;27.33;18.25;;;;;;;6.29;65.12;100325.72;5110058;28;20052;-62
2022/12/05 03:35:38;;;;;;;23.92;16.33;;;;;;;6.30;64.75;100319.06;5097220;28;20051;-62
2022/12/05 03:38:11;;;;;;;23.80;16.50;;;;;;;6.33;65.02;100320.44;5092133;28;20492;-62
2022/12/05 03:40:44;;;;;;;29.63;17.70;;;;;;;6.32;64.26;100318.78;5092147;28;20059;-62
2022/12/05 03:43:22;;;;;;;24.73;16.13;;;;;;;6.31;64.93;100317.13;5091880;28;20052;-62
2022/12/05 03:45:55;;;;;;;22.90;16.17;;;;;;;6.34;64.23;100319.34;5091874;28;20063;-62
2022/12/05 03:48:30;;;;;;;24.15;16.90;;;;;;;6.35;63.76;100320.97;5097771;28;20047;-62
2022/12/05 03:50:59;;;;;;;22.70;15.57;;;;;;;6.30;64.63;100327.38;5108481;28;20487;-62
2022/12/05 03:53:29;;;;;;;26.58;16.85;;;;;;;6.23;64.91;100323.28;5071529;28;20048;-62
2022/12/05 03:56:02;;;;;;;24.23;16.48;;;;;;;6.23;64.46;100321.31;5071650;28;20053;-62
2022/12/05 03:58:35;;;;;;;22.10;15.82;;;;;;;6.25;64.96;100319.09;5071879;28;20086;-62
2022/12/05 04:01:06;;;;;;;21.85;16.00;;;;;;;6.24;64.44;100324.94;5075303;28;20053;-62
2022/12/05 04:03:40;;;;;;;23.40;17.25;;;;;;;6.25;64.54;100329.34;5110352;28;20051;-62
2022/12/05 04:06:14;;;;;;;21.80;15.50;;;;;;;6.25;64.48;100330.16;5115897;28;20056;-62
2022/12/05 04:08:47;;;;;;;23.83;16.25;;;;;;;6.25;64.59;100323.81;5116142;28;20059;-63
2022/12/05 04:11:18;;;;;;;23.10;16.25;;;;;;;6.25;64.75;100332.13;5115670;28;20055;-62
2022/12/05 04:13:49;;;;;;;23.30;16.80;;;;;;;6.23;64.95;100331.56;5116149;28;20385;-62
2022/12/05 04:19:18;;;;;;;24.23;16.27;;;;;;;6.25;64.68;100340.41;5081305;28;20067;-62
2022/12/05 04:21:48;;;;;;;21.70;15.90;;;;;;;6.22;65.02;100335.47;5075442;28;20060;-62
2022/12/05 04:27:14;;;;;;;24.13;16.00;;;;;;;6.27;64.96;100333.47;5076967;28;20084;-62
2022/12/05 04:29:48;;;;;;;22.92;16.13;;;;;;;6.25;64.83;100338.47;5075269;28;20075;-63
2022/12/05 04:32:19;;;;;;;20.42;14.85;;;;;;;6.22;64.99;100338.22;5107830;28;20496;-62
2022/12/05 04:34:55;;;;;;;22.92;16.17;;;;;;;6.25;65.24;100337.66;5107140;28;20059;-62
2022/12/05 04:37:25;;;;;;;24.40;15.77;;;;;;;6.27;64.79;100340.94;5095129;28;20056;-62
2022/12/05 04:39:59;;;;;;;24.55;15.63;;;;;;;6.26;65.41;100333.78;5095413;28;20048;-62
2022/12/05 04:42:31;;;;;;;22.98;15.43;;;;;;;6.23;64.97;100340.69;5094880;28;20055;-62
2022/12/05 04:45:05;;;;;;;22.67;16.25;;;;;;;6.20;65.19;100346.00;5094188;28;20052;-62
2022/12/05 04:47:37;;;;;;;25.42;17.05;;;;;;;6.24;64.57;100339.59;5098685;28;20043;-62
2022/12/05 04:50:08;;;;;;;20.25;15.57;;;;;;;6.24;64.81;100344.31;5115307;28;20055;-62
2022/12/05 04:52:37;;;;;;;23.55;15.95;;;;;;;6.26;64.93;100344.84;5114596;28;20416;-62
2022/12/05 04:55:10;;;;;;;26.20;17.00;;;;;;;6.21;64.44;100339.34;5115269;28;20495;-62
2022/12/05 04:57:42;;;;;;;21.55;15.05;;;;;;;6.20;64.89;100332.97;5115182;28;20488;-62
2022/12/05 05:00:10;;;;;;;20.98;14.95;;;;;;;6.21;64.49;100333.81;5112629;28;20484;-62
2022/12/05 05:02:43;;;;;;;21.23;15.88;;;;;;;6.14;65.13;100330.56;5112943;28;20047;-62
2022/12/05 05:05:13;;;;;;;20.33;15.95;;;;;;;6.10;64.97;100333.88;5114671;28;20056;-62
2022/12/05 05:07:49;;;;;;;22.48;16.45;;;;;;;5.98;65.52;100333.41;5114659;28;20062;-62
2022/12/05 05:10:21;;;;;;;21.90;16.20;;;;;;;6.05;65.12;100335.88;5113380;28;20056;-62
2022/12/05 05:12:49;;;;;;;24.38;17.17;;;;;;;6.04;65.12;100334.22;5102549;28;20064;-62
2022/12/05 05:15:16;;;;;;;22.48;15.30;;;;;;;6.03;64.96;100333.38;5073872;28;20052;-62
2022/12/05 05:17:45;;;;;;;21.30;15.57;;;;;;;6.02;64.90;100345.53;5108084;28;20058;-62
2022/12/05 05:20:28;;;;;;;22.63;16.13;;;;;;;5.99;65.46;100335.06;5114602;28;20062;-62
2022/12/05 05:22:57;;;;;;;24.65;15.38;;;;;;;6.07;65.02;100339.19;5114627;28;20044;-62
2022/12/05 05:25:25;;;;;;;21.55;15.57;;;;;;;6.07;64.86;100348.28;5103448;28;20062;-62
2022/12/05 05:27:55;;;;;;;20.83;14.00;;;;;;;6.01;65.45;100343.91;5114128;28;20055;-62
2022/12/05 05:30:22;;;;;;;;;;;;;;;5.99;65.34;100346.13;5114432;28;20446;-62
2022/12/05 05:32:50;;;;;;;21.85;15.90;;;;;;;6.08;64.79;100349.13;5114054;28;19939;-61
2022/12/05 05:35:19;;;;;;;22.23;16.20;;;;;;;6.02;64.81;100348.31;5100913;28;20063;-61
2022/12/05 05:37:46;;;;;;;23.07;15.50;;;;;;;6.03;65.23;100355.50;5095237;28;20067;-61
2022/12/05 05:40:16;;;;;;;22.00;15.23;;;;;;;6.03;65.66;100355.50;5114019;28;20991;-62
2022/12/05 05:42:44;;;;;;;21.40;14.68;;;;;;;6.05;65.28;100356.06;5114090;28;20489;-61
2022/12/05 05:45:13;;;;;;;19.40;14.32;;;;;;;6.04;65.94;100359.09;5111810;28;20043;-62
2022/12/05 05:47:41;;;;;;;21.13;14.88;;;;;;;6.03;65.23;100361.03;5112023;28;20051;-62
2022/12/05 05:50:09;;;;;;;20.10;15.07;;;;;;;6.10;64.58;100360.72;5113691;28;20052;-61
2022/12/05 05:52:38;;;;;;;21.30;14.15;;;;;;;6.14;64.61;100360.97;5113731;28;20047;-62
2022/12/05 05:55:07;;;;;;;19.85;14.80;;;;;;;6.10;64.39;100358.75;5101724;28;20050;-61
2022/12/05 05:57:34;;;;;;;19.15;14.32;;;;;;;5.98;64.55;100366.59;5113848;28;20059;-63
2022/12/05 06:00:04;;;;;;;20.80;14.85;;;;;;;5.98;64.32;100372.13;5113831;28;20062;-61
2022/12/05 06:02:34;;;;;;;18.85;13.88;;;;;;;5.97;65.26;100362.19;5114325;28;20488;-62
2022/12/05 06:05:02;;;;;;;18.58;12.98;;;;;;;5.97;64.78;100373.25;5113532;28;20047;-62
2022/12/05 06:07:29;;;;;;;18.13;13.57;;;;;;;5.97;64.86;100376.00;5113810;28;20058;-61
2022/12/05 06:09:58;;;;;;;19.63;14.90;;;;;;;5.94;64.56;100373.75;5111594;28;20047;-62
2022/12/05 06:12:26;;;;;;;20.50;14.80;;;;;;;5.91;64.98;100374.34;5111337;28;20047;-62
2022/12/05 06:14:53;;;;;;;20.55;14.75;;;;;;;5.91;64.68;100379.88;5112695;28;20393;-62
2022/12/05 06:17:20;;;;;;;17.67;12.57;;;;;;;5.95;64.75;100375.47;5113369;28;20052;-62
2022/12/05 06:19:47;;;;;;;22.10;14.32;;;;;;;5.94;64.67;100384.81;5113366;28;20056;-62
2022/12/05 06:22:15;;;;;;;19.23;14.27;;;;;;;5.92;64.67;100386.22;5113137;28;20056;-62
2022/12/05 06:24:42;;;;;;;20.25;14.20;;;;;;;5.89;64.79;100387.63;5109390;28;20052;-62
2022/12/05 06:27:13;;;;;;;18.08;13.48;;;;;;;5.86;64.99;100383.50;5113310;28;20051;-62
2022/12/05 06:29:40;;;;;;;17.45;13.20;;;;;;;5.83;64.98;100386.00;5113227;28;20056;-61
2022/12/05 06:32:08;;;;;;;18.13;12.95;;;;;;;5.81;65.22;100389.03;5099058;28;20048;-62
2022/12/05 06:34:35;;;;;;;17.40;13.38;;;;;;;5.81;65.24;100394.56;5087606;28;20066;-62
2022/12/05 06:37:04;;;;;;;17.63;12.57;;;;;;;5.85;65.17;100397.59;5100368;28;20055;-62
2022/12/05 06:39:32;;;;;;;21.17;15.38;;;;;;;5.74;64.98;100401.53;5111751;28;20125;-62
2022/12/05 06:42:02;;;;;;;16.45;12.35;;;;;;;5.81;65.51;100402.03;5087180;28;20059;-62
2022/12/05 06:44:30;;;;;;;19.40;14.73;;;;;;;5.82;65.20;100406.47;5091717;28;20048;-62
2022/12/05 06:46:58;;;;;;;19.45;14.30;;;;;;;5.86;65.18;100399.28;5092490;28;20051;-62
2022/12/05 06:49:31;;;;;;;16.23;13.63;;;;;;;5.92;64.76;100400.88;5090614;28;20493;-61
2022/12/05 06:51:58;;;;;;;16.80;12.52;;;;;;;5.87;64.63;100406.44;5093745;28;20043;-61
2022/12/05 06:54:25;;;;;;;16.80;12.55;;;;;;;5.90;64.37;100403.13;5090188;28;20063;-62
2022/12/05 06:56:52;;;;;;;19.17;13.57;;;;;;;5.87;64.64;100410.03;5089896;28;20052;-62
2022/12/05 06:59:20;;;;;;;16.20;11.73;;;;;;;5.85;64.53;100414.19;5090891;28;20044;-61
2022/12/05 07:01:47;;;;;;;16.83;12.48;;;;;;;5.84;65.16;100412.56;5090954;28;20103;-62
2022/12/05 07:04:19;;;;;;;15.70;12.20;;;;;;;5.81;64.88;100416.69;5089824;28;20421;-61
2022/12/05 07:06:47;;;;;;;14.73;11.68;;;;;;;5.77;65.14;100418.34;5090327;28;20059;-62
2022/12/05 07:09:15;;;;;;;16.52;12.27;;;;;;;5.78;64.64;100414.50;5092257;28;20067;-61
2022/12/05 07:11:42;;;;;;;13.82;11.05;;;;;;;5.78;64.70;100425.56;5089272;28;20055;-61
2022/12/05 07:14:10;;;;;;;15.95;11.70;;;;;;;5.77;64.73;100414.78;5097770;28;20052;-62
2022/12/05 07:16:37;;;;;;;15.25;11.55;;;;;;;5.77;64.79;100423.88;5112520;28;20052;-61
2022/12/05 07:19:06;;;;;;;14.43;10.93;;;;;;;5.74;64.92;100423.66;5094696;28;20059;-62
2022/12/05 07:21:33;;;;;;;13.10;10.45;;;;;;;5.76;64.69;100426.97;5092079;28;20052;-62
2022/12/05 07:24:00;;;;;;;15.05;11.55;;;;;;;5.75;64.59;100420.59;5092448;28;20481;-62
2022/12/05 07:26:28;;;;;;;15.45;11.82;;;;;;;5.67;64.36;100430.31;5098692;28;20055;-62
2022/12/05 07:28:56;;;;;;;13.60;10.68;;;;;;;5.70;64.82;100424.19;5108117;28;20047;-62
2022/12/05 07:31:24;;;;;;;14.70;11.50;;;;;;;5.64;64.85;100430.03;5093215;28;20489;-62
2022/12/05 07:33:52;;;;;;;16.25;12.00;;;;;;;5.66;64.59;100428.63;5093362;28;20056;-62
2022/12/05 07:36:22;;;;;;;15.10;11.23;;;;;;;5.62;64.94;100438.59;5096204;28;20056;-62
2022/12/05 07:38:55;;;;;;;13.90;10.77;;;;;;;5.66;64.75;100428.63;5095970;28;20055;-62
2022/12/05 07:41:25;;;;;;;13.45;10.63;;;;;;;5.65;64.43;100427.00;5096432;28;20480;-62
2022/12/05 07:43:53;;;;;;;12.05;10.57;;;;;;;5.67;64.28;100438.59;5112808;28;20051;-62
2022/12/05 07:46:20;;;;;;;16.65;12.93;;;;;;;5.61;65.11;100438.91;5116482;28;20051;-62
2022/12/05 07:48:49;;;;;;;14.55;10.60;;;;;;;5.65;64.55;100435.28;5115753;28;20058;-63
2022/12/05 07:51:17;;;;;;;13.00;10.80;;;;;;;5.65;64.54;100431.72;5116090;28;20055;-62
2022/12/05 07:53:46;;;;;;;14.07;11.07;;;;;;;5.57;64.54;100441.41;5116306;28;20048;-48
2022/12/05 07:56:16;;;;;;;23.42;16.33;;;;;;;4.57;67.76;100442.09;5115784;28;20054;-49
2022/12/05 07:58:44;;;;;;;15.27;12.18;;;;;;;4.64;68.72;100429.69;5107900;28;20411;-61
2022/12/05 08:01:14;;;;;;;14.18;11.32;;;;;;;5.11;67.30;100438.75;5113404;28;20051;-64
2022/12/05 08:03:42;;;;;;;13.40;11.30;;;;;;;5.36;66.64;100431.53;5042835;28;20500;-62
2022/12/05 08:06:12;;;;;;;13.55;11.63;;;;;;;5.49;65.85;100437.28;5085278;28;20052;-62
2022/12/05 08:08:40;;;;;;;13.00;11.32;;;;;;;5.57;65.73;100446.91;5084791;28;20048;-62
2022/12/05 08:11:14;;;;;;;14.00;10.45;;;;;;;5.64;65.37;100444.66;5085789;28;20077;-63
2022/12/05 08:13:48;;;;;;;13.70;10.93;;;;;;;5.77;65.15;100443.22;5090453;28;20048;-62
2022/12/05 08:16:23;;;;;;;11.93;9.20;;;;;;;5.81;64.95;100440.75;5089775;28;20048;-63
2022/12/05 08:18:55;;;;;;;10.88;9.40;;;;;;;5.83;64.88;100452.34;5089655;28;20048;-62
2022/12/05 08:21:24;;;;;;;12.13;10.48;;;;;;;5.82;64.88;100450.69;5087126;28;20061;-62
2022/12/05 08:23:51;;;;;;;11.77;9.40;;;;;;;5.87;64.92;100459.78;5086185;28;20059;-62
2022/12/05 08:26:23;;;;;;;11.63;10.00;;;;;;;5.94;64.74;100461.41;5086550;28;20067;-62
2022/12/05 08:28:53;;;;;;;12.43;10.07;;;;;;;5.97;64.50;100467.25;5086586;28;21179;-63
2022/12/05 08:31:23;;;;;;;11.65;8.18;;;;;;;6.01;64.41;100471.09;5086141;28;20098;-63
2022/12/05 08:33:50;;;;;;;15.45;9.70;;;;;;;5.98;64.18;100471.63;5086995;28;20508;-62
2022/12/05 08:36:19;;;;;;;11.77;8.68;;;;;;;6.11;64.47;100475.75;5086524;28;20056;-62
2022/12/05 08:38:46;;;;;;;12.15;9.10;;;;;;;6.21;64.82;100477.63;5086370;28;20048;-62
2022/12/05 08:41:15;;;;;;;10.60;8.43;;;;;;;6.33;64.07;100478.09;5088021;28;20484;-63
2022/12/05 08:43:44;;;;;;;9.55;8.43;;;;;;;6.40;63.55;100477.78;5087073;28;20408;-63
2022/12/05 08:46:12;;;;;;;11.95;9.45;;;;;;;6.44;62.92;100478.88;5085353;28;20056;-63
2022/12/05 08:48:40;;;;;;;12.70;9.52;;;;;;;6.45;62.33;100480.53;5088907;28;20044;-62
2022/12/05 08:51:09;;;;;;;11.52;8.95;;;;;;;6.33;62.23;100483.63;5087728;28;20408;-64
2022/12/05 08:53:37;;;;;;;10.20;8.93;;;;;;;6.32;62.34;100486.69;5089127;28;20488;-63
2022/12/05 08:56:05;;;;;;;9.63;8.38;;;;;;;6.30;62.19;100487.81;5089970;28;20055;-63
2022/12/05 08:58:33;;;;;;;10.15;7.72;;;;;;;6.22;62.50;100482.06;5088991;28;20051;-63
2022/12/05 09:01:06;;;;;;;10.95;8.75;;;;;;;6.24;62.50;100493.66;5091380;28;20059;-63
2022/12/05 09:03:33;;;;;;;11.73;8.52;;;;;;;6.22;62.88;100495.88;5087957;28;20052;-63
2022/12/05 09:06:08;;;;;;;11.25;9.20;;;;;;;6.23;62.07;100489.22;5089875;28;20056;-63
2022/12/05 09:08:35;;;;;;;21.38;19.02;;;;;;;6.26;62.35;100494.19;5089102;28;20055;-63
2022/12/05 09:11:06;;;;;;;14.68;12.00;;;;;;;6.21;62.07;100494.22;5090705;28;20055;-63
2022/12/05 09:13:33;;;;;;;10.40;8.35;;;;;;;6.14;61.72;100491.75;5088472;28;20048;-63
2022/12/05 09:16:07;;;;;;;10.95;9.02;;;;;;;6.22;61.79;100495.88;5093989;28;20416;-62
2022/12/05 09:18:35;;;;;;;11.50;9.30;;;;;;;6.27;61.93;100501.38;5093670;28;20056;-63
2022/12/05 09:21:07;;;;;;;10.48;8.90;;;;;;;6.26;62.17;100502.50;5094520;28;20047;-63
2022/12/05 09:23:34;;;;;;;12.38;9.85;;;;;;;6.17;62.21;100493.94;5095311;28;20071;-63
2022/12/05 09:26:01;;;;;;;12.65;11.32;;;;;;;6.10;61.85;100499.78;5091196;28;20511;-63
2022/12/05 09:28:29;;;;;;;9.98;8.98;;;;;;;6.10;62.43;100497.03;5091144;28;20056;-62
2022/12/05 09:30:57;;;;;;;10.90;8.90;;;;;;;6.12;62.41;100502.28;5089389;28;20415;-62
2022/12/05 09:33:26;;;;;;;10.10;8.27;;;;;;;6.15;62.37;100498.94;5088613;28;20059;-62
2022/12/05 09:35:54;;;;;;;9.82;8.30;;;;;;;6.14;61.70;100505.59;5087227;28;20075;-62
2022/12/05 09:38:21;;;;;;;10.95;9.77;;;;;;;6.14;61.91;100504.78;5086914;28;20048;-62
2022/12/05 09:41:02;;;;;;;10.85;9.48;;;;;;;6.07;62.48;100502.31;5083480;28;20075;-62
2022/12/05 09:43:39;;;;;;;11.60;9.15;;;;;;;6.05;62.17;100508.13;5086539;28;20155;-62
2022/12/05 09:46:14;;;;;;;10.73;9.38;;;;;;;6.05;62.36;100499.00;5081546;28;20056;-63
2022/12/05 09:48:43;;;;;;;17.10;13.25;;;;;;;6.07;62.30;100511.44;5085036;28;20056;-63
2022/12/05 09:51:12;;;;;;;14.02;11.75;;;;;;;6.05;62.77;100502.59;5086040;28;20044;-63
2022/12/05 09:53:42;;;;;;;11.00;9.13;;;;;;;6.07;62.42;100508.66;5085576;28;20055;-62
2022/12/05 09:56:21;;;;;;;10.57;8.95;;;;;;;6.09;62.47;100505.63;5082212;28;20059;-62
2022/12/05 09:58:49;;;;;;;10.07;8.98;;;;;;;6.02;62.17;100500.38;5086607;28;20074;-62
2022/12/05 10:01:27;;;;;;;18.80;9.30;;;;;;;6.01;62.79;100504.28;5083728;28;20052;-63
2022/12/05 10:04:17;;;;;;;16.92;8.57;;;;;;;6.09;62.37;100509.22;5090531;28;20519;-62
2022/12/05 10:06:55;;;;;;;12.00;8.88;;;;;;;6.12;62.09;100504.22;5087488;28;20052;-62
2022/12/05 10:09:39;;;;;;;9.90;8.50;;;;;;;5.97;62.40;100505.94;5088829;28;20484;-62
2022/12/05 10:12:17;;;;;;;11.82;8.07;;;;;;;5.98;62.49;100502.06;5091588;28;20436;-63
2022/12/05 10:14:57;;;;;;;10.05;8.15;;;;;;;5.99;62.64;100498.19;5087876;28;20392;-62
2022/12/05 10:17:27;;;;;;;;;;;;;;;5.96;62.40;100507.03;5093513;28;20098;-62
2022/12/05 10:19:57;;;;;;;;;;;;;;;6.02;62.12;100507.84;5091918;28;19928;-63
2022/12/05 10:22:29;;;;;;;10.93;8.77;;;;;;;6.02;62.54;100500.38;5093806;28;19928;-63
2022/12/05 10:25:01;;;;;;;11.32;9.93;;;;;;;6.05;62.00;100494.31;5091906;28;20056;-63
2022/12/05 10:27:34;;;;;;;12.88;11.50;;;;;;;6.03;62.30;100495.69;5092093;28;20055;-63
2022/12/05 10:30:04;;;;;;;10.10;9.10;;;;;;;5.98;62.46;100493.75;5087749;28;20055;-63
2022/12/05 10:32:35;;;;;;;;;;;;;;;5.96;62.21;100501.50;5091182;28;20054;-63
2022/12/05 10:35:16;;;;;;;12.57;10.73;;;;;;;6.05;62.11;100499.00;5089391;28;19920;-63
2022/12/05 10:37:51;;;;;;;10.57;8.73;;;;;;;5.97;62.05;100500.41;5087234;28;20059;-62
2022/12/05 10:40:19;;;;;;;8.95;8.05;;;;;;;6.00;62.99;100504.53;5088511;28;20044;-62
2022/12/05 10:42:47;;;;;;;11.45;9.85;;;;;;;6.03;62.26;100504.00;5088107;28;20052;-62
2022/12/05 10:45:23;;;;;;;10.20;9.13;;;;;;;6.10;62.35;100504.50;5088674;28;20413;-64
2022/12/05 10:47:55;;;;;;;8.65;7.63;;;;;;;6.13;62.66;100508.63;5088364;28;20059;-62
2022/12/05 10:50:29;;;;;;;8.45;7.65;;;;;;;6.09;61.89;100505.63;5089536;28;20606;-62
2022/12/05 10:52:57;;;;;;;10.05;8.85;;;;;;;6.09;61.68;100503.69;5087768;28;20059;-62
2022/12/05 10:55:30;;;;;;;10.20;8.52;;;;;;;6.12;62.09;100501.47;5090709;28;20048;-63
2022/12/05 10:58:11;;;;;;;9.35;8.00;;;;;;;6.12;61.74;100501.47;5088092;28;20048;-62
2022/12/05 11:00:45;;;;;;;9.35;8.45;;;;;;;6.06;62.11;100495.94;5087952;28;20060;-62
2022/12/05 11:03:30;;;;;;;9.77;8.77;;;;;;;6.00;62.19;100505.38;5084099;28;20048;-62
2022/12/05 11:06:02;;;;;;;10.38;9.27;;;;;;;6.00;62.12;100505.38;5087281;28;20077;-62
2022/12/05 11:08:32;;;;;;;11.48;9.77;;;;;;;5.98;62.30;100493.75;5088537;28;20392;-63
2022/12/05 11:11:04;;;;;;;10.15;9.15;;;;;;;6.07;62.39;100494.03;5091781;28;20059;-63
2022/12/05 11:13:32;;;;;;;9.90;8.90;;;;;;;6.09;61.93;100492.63;5091855;28;20048;-63
2022/12/05 11:16:00;;;;;;;10.73;9.63;;;;;;;6.15;61.81;100492.59;5088914;28;20052;-63
2022/12/05 11:18:31;;;;;;;9.63;8.70;;;;;;;6.14;62.10;100488.19;5087264;28;20052;-62
2022/12/05 11:21:10;;;;;;;8.88;7.97;;;;;;;6.17;61.80;100488.41;5087650;28;20059;-62
2022/12/05 11:23:38;;;;;;;9.68;8.43;;;;;;;6.19;61.99;100483.44;5086767;28;20048;-62
2022/12/05 11:26:17;;;;;;;10.77;8.88;;;;;;;6.17;62.18;100490.34;5087787;28;20126;-64
2022/12/05 11:28:45;;;;;;;9.32;8.32;;;;;;;6.28;61.60;100484.50;5088741;28;20044;-62
2022/12/05 11:31:23;;;;;;;11.82;10.27;;;;;;;6.30;61.28;100482.28;5089881;28;20052;-63
2022/12/05 11:34:02;;;;;;;12.90;11.48;;;;;;;6.29;61.57;100475.06;5088787;28;20729;-63
2022/12/05 11:36:39;;;;;;;11.95;10.23;;;;;;;6.36;61.62;100487.75;5089204;28;20054;-62
2022/12/05 11:39:07;;;;;;;10.60;8.98;;;;;;;6.30;61.20;100487.81;5091203;28;20062;-64
2022/12/05 11:41:47;;;;;;;9.75;8.63;;;;;;;6.35;61.42;100484.19;5087591;28;20052;-64
2022/12/05 11:44:27;;;;;;;11.75;10.05;;;;;;;6.32;61.64;100487.53;5088436;28;20155;-62